^^
Saratoga-Weather Station Historical Data
Daily Summary for June 29, 2020 Units:  English    Metric   Both
Daily Weekly Monthly Yearly Custom
  High: Low: Average:
Temperature: 57 °F 40.6 °F 48.6 °F
Dew Point: 48 °F 39 °F 44.2 °F
Humidity: 96% 67% 85%
Wind Speed: 14.1mph 0mph 2.9mph
Wind Gust: 17mph - -
Wind- - SSW
Pressure: 29.7 in 29.3 in -
Precipitation: 0.16 in    
Historical Graphs
 
 
Tabular Data for June 29, 2020
Time Temperature Dew Point Pressure Wind Wind Speed Wind Gust Humidity Rainfall Rate (Hourly) solar
00:04 43.9 °F 41.2 °F 29.7 in ESE 2 mph 4 mph 90% 0 in 0 W/m2
00:09 44.4 °F 41.4 °F 29.7 in West 0.9 mph 3 mph 89% 0 in 0 W/m2
00:14 45.1 °F 41.5 °F 29.7 in NW 2.9 mph 3 mph 87% 0 in 0 W/m2
00:19 45.7 °F 41.7 °F 29.7 in ENE 2 mph 3 mph 86% 0 in 0 W/m2
00:24 46 °F 41.7 °F 29.7 in West 2.9 mph 3 mph 85% 0 in 0 W/m2
00:29 46.6 °F 42.1 °F 29.7 in Calm   4 mph 84% 0 in 0 W/m2
00:34 46.8 °F 42.3 °F 29.7 in NNW 2.9 mph 3 mph 84% 0.01 in 0 W/m2
00:39 46.9 °F 42.6 °F 29.7 in North 2 mph 3 mph 85% 0.01 in 0 W/m2
00:44 46.9 °F 42.6 °F 29.7 in NW 2 mph 5 mph 85% 0.01 in 0 W/m2
00:49 46.9 °F 43 °F 29.7 in NE 0.9 mph 1 mph 86% 0.01 in 0 W/m2
00:54 46.8 °F 43.2 °F 29.7 in ENE 0.9 mph 5 mph 87% 0.02 in 0 W/m2
00:59 46.8 °F 43.2 °F 29.7 in North 0.9 mph 3 mph 87% 0.02 in 0 W/m2
01:04 46.8 °F 43.3 °F 29.7 in WNW 4 mph 4 mph 88% 0.02 in 0 W/m2
01:09 46.8 °F 43.7 °F 29.7 in East 2.9 mph 4 mph 89% 0.02 in 0 W/m2
01:14 46.8 °F 43.7 °F 29.7 in Calm   2 mph 89% 0.02 in 0 W/m2
01:19 46.8 °F 43.7 °F 29.7 in NW 2 mph 4 mph 89% 0.02 in 0 W/m2
01:24 46.8 °F 44.1 °F 29.7 in Calm   5 mph 90% 0.02 in 0 W/m2
01:29 46.8 °F 44.1 °F 29.7 in ENE 2.9 mph 3 mph 90% 0.02 in 0 W/m2
01:34 46.8 °F 44.1 °F 29.7 in NE 4 mph 4 mph 90% 0.02 in 0 W/m2
01:39 46.8 °F 44.1 °F 29.7 in NE 2 mph 4 mph 90% 0.02 in 0 W/m2
01:44 46.9 °F 44.2 °F 29.7 in Calm   1 mph 90% 0.02 in 0 W/m2
01:49 46.9 °F 44.2 °F 29.7 in West 2 mph 3 mph 90% 0.02 in 0 W/m2
01:54 46.9 °F 44.4 °F 29.7 in NW 0.9 mph 3 mph 91% 0.01 in 0 W/m2
01:59 47.1 °F 44.4 °F 29.7 in North 2.9 mph 3 mph 90% 0.01 in 0 W/m2
02:04 47.1 °F 44.4 °F 29.7 in Calm   3 mph 90% 0 in 0 W/m2
02:09 47.3 °F 44.6 °F 29.7 in NNW 2 mph 4 mph 90% 0 in 0 W/m2
02:14 47.7 °F 45 °F 29.7 in NNW 4.9 mph 10 mph 90% 0 in 0 W/m2
02:19 47.8 °F 45 °F 29.7 in NW 2 mph 8 mph 90% 0 in 0 W/m2
02:24 48 °F 45.1 °F 29.7 in NNW 0.9 mph 4 mph 90% 0 in 0 W/m2
02:29 48 °F 45.1 °F 29.7 in NW 2 mph 4 mph 90% 0 in 0 W/m2
02:34 48.4 °F 45.5 °F 29.7 in ESE 2.9 mph 9 mph 90% 0 in 0 W/m2
02:39 48.4 °F 45.5 °F 29.7 in North 0.9 mph 4 mph 90% 0 in 0 W/m2
02:44 48.6 °F 45.7 °F 29.7 in ENE 0.9 mph 3 mph 90% 0 in 0 W/m2
02:49 48.6 °F 45.7 °F 29.7 in WNW 4 mph 11 mph 90% 0 in 0 W/m2
02:54 48.7 °F 45.9 °F 29.7 in Calm   2 mph 90% 0 in 0 W/m2
02:59 48.7 °F 45.9 °F 29.7 in WNW 4 mph 8 mph 90% 0 in 0 W/m2
03:04 48.7 °F 45.9 °F 29.7 in NNE 4 mph 4 mph 90% 0 in 0 W/m2
03:09 48.7 °F 45.9 °F 29.7 in NNE 4.9 mph 9 mph 90% 0 in 0 W/m2
03:14 48.9 °F 46 °F 29.7 in SSW 2 mph 4 mph 90% 0 in 0 W/m2
03:19 48.9 °F 46 °F 29.7 in North 2.9 mph 9 mph 90% 0 in 0 W/m2
03:25 48.9 °F 46 °F 29.7 in Calm   4 mph 90% 0 in 0 W/m2
03:30 48.9 °F 46 °F 29.7 in NE 4 mph 10 mph 90% 0 in 0 W/m2
03:35 49.3 °F 46.4 °F 29.7 in WNW 4 mph 6 mph 90% 0 in 0 W/m2
03:40 49.3 °F 46.2 °F 29.7 in West 6.9 mph 9 mph 89% 0 in 0 W/m2
03:45 49.3 °F 46.2 °F 29.7 in West 0.9 mph 6 mph 89% 0 in 0 W/m2
03:50 49.3 °F 46.2 °F 29.6 in SW 0.9 mph 9 mph 89% 0 in 0 W/m2
03:55 49.1 °F 46 °F 29.6 in SE 0.9 mph 4 mph 89% 0 in 0 W/m2
04:00 48.9 °F 45.9 °F 29.6 in NNW 0.9 mph 6 mph 89% 0 in 0 W/m2
04:05 48.9 °F 45.9 °F 29.6 in SW 4.9 mph 7 mph 89% 0 in 0 W/m2
04:11 48.7 °F 45.3 °F 29.6 in Calm   2 mph 88% 0 in 0 W/m2
04:16 48.7 °F 45.7 °F 29.6 in North 2 mph 3 mph 89% 0 in 0 W/m2
04:21 48.7 °F 45.7 °F 29.6 in Calm   7 mph 89% 0 in 0 W/m2
04:26 48.7 °F 45.7 °F 29.6 in SSE 2.9 mph 4 mph 89% 0 in 0 W/m2
04:31 48.7 °F 45.7 °F 29.6 in NNE 2 mph 7 mph 89% 0 in 0 W/m2
04:36 48.6 °F 45.5 °F 29.6 in WSW 2 mph 2 mph 89% 0 in 0 W/m2
04:41 48.6 °F 45.5 °F 29.6 in Calm   2 mph 89% 0 in 0 W/m2
04:46 48.4 °F 45.3 °F 29.6 in NW 2 mph 3 mph 89% 0 in 0 W/m2
04:51 48.2 °F 45.1 °F 29.6 in North 2 mph 7 mph 89% 0 in 0 W/m2
04:56 48 °F 45 °F 29.6 in NNW 2 mph 4 mph 89% 0 in 0 W/m2
05:01 47.8 °F 44.8 °F 29.6 in Calm   6 mph 89% 0 in 0 W/m2
05:06 47.8 °F 44.8 °F 29.6 in North 0.9 mph 2 mph 89% 0 in 0 W/m2
05:11 47.7 °F 44.6 °F 29.6 in Calm   3 mph 89% 0 in 0 W/m2
05:16 47.5 °F 44.4 °F 29.6 in North 2.9 mph 3 mph 89% 0 in 0 W/m2
05:21 47.3 °F 44.2 °F 29.6 in NNE 0.9 mph 3 mph 89% 0 in 0 W/m2
05:26 47.1 °F 44.1 °F 29.6 in ENE 2 mph 4 mph 89% 0 in 0 W/m2
05:31 47.1 °F 44.4 °F 29.6 in ENE 2.9 mph 3 mph 90% 0 in 0 W/m2
05:36 46.9 °F 43.9 °F 29.6 in ENE 0.9 mph 5 mph 89% 0 in 0 W/m2
05:41 46.6 °F 43.2 °F 29.6 in Calm   1 mph 88% 0 in 0 W/m2
05:46 46 °F 42.6 °F 29.6 in SE 0.9 mph 4 mph 88% 0 in 0 W/m2
05:51 45.3 °F 41.9 °F 29.6 in Calm     88% 0 in 0 W/m2
05:56 44.8 °F 41.7 °F 29.6 in Calm     89% 0 in 0 W/m2
06:01 44.2 °F 41.5 °F 29.6 in Calm     90% 0 in 0 W/m2
06:06 43.9 °F 41.4 °F 29.6 in SE 0.9 mph 1 mph 91% 0 in 0 W/m2
06:11 43.5 °F 41 °F 29.6 in Calm   1 mph 91% 0 in 0 W/m2
06:16 43.3 °F 41.2 °F 29.6 in Calm     92% 0 in 0 W/m2
06:21 43.2 °F 41 °F 29.6 in Calm   1 mph 92% 0 in 0 W/m2
06:26 43 °F 40.8 °F 29.6 in Calm     92% 0 in 0 W/m2
06:31 42.6 °F 40.5 °F 29.6 in SE 0.9 mph 2 mph 92% 0 in 0 W/m2
06:36 42.4 °F 40.6 °F 29.5 in Calm   1 mph 93% 0 in 0 W/m2
06:41 42.3 °F 40.5 °F 29.5 in Calm   2 mph 93% 0 in 0 W/m2
06:46 42.3 °F 40.5 °F 29.5 in Calm   1 mph 93% 0 in 0 W/m2
06:51 42.3 °F 40.6 °F 29.5 in NE 0.9 mph 3 mph 94% 0 in 0 W/m2
06:56 42.3 °F 40.6 °F 29.5 in NE 0.9 mph 2 mph 94% 0 in 0 W/m2
07:01 42.3 °F 40.6 °F 29.5 in Calm     94% 0 in 0 W/m2
07:06 41.9 °F 40.1 °F 29.5 in Calm     93% 0 in 0 W/m2
07:11 41.5 °F 39.7 °F 29.5 in Calm     93% 0 in 0 W/m2
07:16 41.2 °F 39.4 °F 29.5 in Calm   2 mph 93% 0 in 0 W/m2
07:21 41.2 °F 39.6 °F 29.5 in NE 2.9 mph 3 mph 94% 0 in 0 W/m2
07:26 41.5 °F 40.3 °F 29.5 in Calm   1 mph 95% 0 in 0 W/m2
07:31 41.4 °F 39.7 °F 29.5 in Calm     94% 0 in 5 W/m2
07:36 41.2 °F 39.6 °F 29.5 in SE 0.9 mph 2 mph 94% 0 in 7 W/m2
07:41 41 °F 39.4 °F 29.5 in Calm   1 mph 94% 0 in 9 W/m2
07:46 40.8 °F 39.2 °F 29.5 in Calm   1 mph 94% 0 in 12 W/m2
07:51 40.6 °F 39 °F 29.5 in Calm   1 mph 94% 0 in 16 W/m2
07:56 40.6 °F 39 °F 29.5 in SE 0.9 mph 2 mph 94% 0 in 26 W/m2
08:01 40.6 °F 39.4 °F 29.5 in ENE 0.9 mph 2 mph 95% 0 in 33 W/m2
08:07 41 °F 39.7 °F 29.5 in Calm   2 mph 95% 0 in 40 W/m2
08:12 41.2 °F 39.9 °F 29.5 in Calm   2 mph 95% 0 in 49 W/m2
08:17 41.4 °F 40.1 °F 29.5 in Calm   2 mph 95% 0 in 46 W/m2
08:22 41.4 °F 40.1 °F 29.5 in Calm     95% 0 in 42 W/m2
08:27 41.4 °F 40.1 °F 29.5 in Calm   2 mph 95% 0 in 37 W/m2
08:32 41.4 °F 40.1 °F 29.5 in Calm     95% 0 in 42 W/m2
08:37 41.4 °F 40.1 °F 29.5 in Calm     95% 0 in 54 W/m2
08:42 41.4 °F 40.1 °F 29.5 in Calm     95% 0 in 84 W/m2
08:47 41.5 °F 40.3 °F 29.5 in Calm     95% 0 in 107 W/m2
08:52 42.1 °F 41 °F 29.5 in ESE 0.9 mph 2 mph 96% 0 in 125 W/m2
08:57 42.4 °F 41.4 °F 29.5 in Calm   2 mph 96% 0 in 98 W/m2
09:02 43 °F 41.7 °F 29.5 in Calm   1 mph 95% 0 in 86 W/m2
09:07 43.2 °F 41.9 °F 29.5 in Calm   2 mph 95% 0 in 81 W/m2
09:12 43.3 °F 41.7 °F 29.4 in South 0.9 mph 2 mph 94% 0 in 95 W/m2
09:17 43.3 °F 41.7 °F 29.4 in Calm   1 mph 94% 0 in 135 W/m2
09:22 43.7 °F 42.1 °F 29.4 in Calm   2 mph 94% 0 in 134 W/m2
09:27 44.1 °F 42.4 °F 29.4 in Calm     94% 0 in 118 W/m2
09:32 44.4 °F 42.8 °F 29.4 in Calm   2 mph 94% 0 in 207 W/m2
09:37 45.5 °F 43.3 °F 29.4 in NNE 2 mph 4 mph 92% 0 in 178 W/m2
09:42 46.8 °F 43.7 °F 29.4 in NE 2 mph 4 mph 89% 0 in 193 W/m2
09:47 47.7 °F 44.2 °F 29.4 in ENE 2.9 mph 3 mph 88% 0 in 207 W/m2
09:52 48.7 °F 44.1 °F 29.4 in ENE 2 mph 7 mph 84% 0 in 264 W/m2
09:57 49.3 °F 44.1 °F 29.4 in ESE 0.9 mph 3 mph 82% 0 in 278 W/m2
10:02 50 °F 44.4 °F 29.4 in NNE 2 mph 7 mph 81% 0 in 265 W/m2
10:07 50.9 °F 45 °F 29.4 in ENE 0.9 mph 4 mph 80% 0 in 294 W/m2
10:12 51.8 °F 44.8 °F 29.4 in ENE 2.9 mph 8 mph 77% 0 in 283 W/m2
10:17 52.5 °F 44.8 °F 29.4 in SSE 2 mph 5 mph 75% 0 in 188 W/m2
10:22 53.2 °F 44.8 °F 29.4 in NE 2 mph 5 mph 73% 0 in 279 W/m2
10:27 54 °F 44.8 °F 29.4 in NE 6 mph 6 mph 71% 0 in 278 W/m2
10:32 54.3 °F 45.1 °F 29.4 in ENE 4.9 mph 8 mph 71% 0 in 355 W/m2
10:38 54.9 °F 45.3 °F 29.4 in North 2.9 mph 16 mph 70% 0 in 362 W/m2
10:43 55.2 °F 45.7 °F 29.4 in East 8.9 mph 10 mph 70% 0 in 364 W/m2
10:48 55.6 °F 46 °F 29.4 in NE 6.9 mph 13 mph 70% 0 in 410 W/m2
10:53 55.8 °F 46 °F 29.4 in NE 4.9 mph 6 mph 70% 0 in 272 W/m2
10:58 56.1 °F 46 °F 29.4 in NNW 8.9 mph 10 mph 69% 0 in 202 W/m2
11:03 56.1 °F 45.7 °F 29.4 in NNW 2.9 mph 11 mph 68% 0 in 246 W/m2
11:08 56.1 °F 45.7 °F 29.4 in ESE 2.9 mph 8 mph 68% 0 in 200 W/m2
11:13 56.1 °F 45.7 °F 29.4 in NE 2.9 mph 8 mph 68% 0 in 378 W/m2
11:18 56.3 °F 46.2 °F 29.4 in North 4.9 mph 8 mph 69% 0 in 320 W/m2
11:23 56.7 °F 46.6 °F 29.4 in WSW 10.1 mph 11 mph 69% 0 in 336 W/m2
11:28 56.7 °F 46.2 °F 29.4 in NW 0.9 mph 16 mph 68% 0 in 274 W/m2
11:33 56.7 °F 46.2 °F 29.4 in South 0.9 mph 8 mph 68% 0 in 257 W/m2
11:38 56.8 °F 46.4 °F 29.4 in WNW 4.9 mph 16 mph 68% 0 in 272 W/m2
11:43 56.8 °F 46.8 °F 29.4 in NNW 4 mph 9 mph 69% 0 in 178 W/m2
11:48 56.8 °F 46 °F 29.4 in West 10.1 mph 13 mph 67% 0 in 151 W/m2
11:53 56.8 °F 46 °F 29.4 in ENE 11 mph 11 mph 67% 0 in 155 W/m2
11:58 56.8 °F 46.4 °F 29.4 in NW 6 mph 12 mph 68% 0 in 197 W/m2
12:03 56.8 °F 46.4 °F 29.3 in NNE 2 mph 7 mph 68% 0 in 206 W/m2
12:08 56.8 °F 46.4 °F 29.4 in North 2 mph 8 mph 68% 0 in 183 W/m2
12:13 56.8 °F 46 °F 29.3 in WNW 2.9 mph 11 mph 67% 0 in 236 W/m2
12:18 57 °F 46.2 °F 29.3 in ENE 2.9 mph 4 mph 67% 0 in 195 W/m2
12:23 57 °F 46.6 °F 29.3 in NNE 6 mph 6 mph 68% 0 in 151 W/m2
12:28 57 °F 46.6 °F 29.3 in SW 2.9 mph 12 mph 68% 0 in 183 W/m2
12:33 57 °F 46.2 °F 29.3 in ENE 8.1 mph 12 mph 67% 0 in 105 W/m2
12:38 57 °F 46.6 °F 29.3 in North 4 mph 9 mph 68% 0 in 123 W/m2
12:43 57 °F 46.6 °F 29.3 in NW 2 mph 8 mph 68% 0 in 123 W/m2
12:48 56.8 °F 46.4 °F 29.3 in NE 2.9 mph 8 mph 68% 0 in 176 W/m2
12:53 56.8 °F 46.8 °F 29.3 in ENE 4.9 mph 12 mph 69% 0 in 114 W/m2
12:58 56.8 °F 46.8 °F 29.3 in NNW 4 mph 5 mph 69% 0 in 135 W/m2
13:03 56.8 °F 46.8 °F 29.3 in NNW 2 mph 12 mph 69% 0 in 118 W/m2
13:08 56.8 °F 46.8 °F 29.3 in NE 2.9 mph 8 mph 69% 0 in 120 W/m2
13:13 56.8 °F 46.8 °F 29.3 in WNW 8.1 mph 11 mph 69% 0 in 56 W/m2
13:18 56.5 °F 47.1 °F 29.3 in NW 2.9 mph 10 mph 71% 0 in 93 W/m2
13:23 56.1 °F 47.7 °F 29.3 in West 12.1 mph 12 mph 73% 0 in 56 W/m2
13:28 55.6 °F 47.8 °F 29.3 in ESE 2 mph 9 mph 75% 0.01 in 47 W/m2
13:33 54.9 °F 47.8 °F 29.3 in NNW 4.9 mph 13 mph 77% 0.02 in 54 W/m2
13:38 54 °F 48 °F 29.3 in WNW 14.1 mph 15 mph 80% 0.03 in 35 W/m2
13:43 53.2 °F 47.5 °F 29.3 in South 2 mph 10 mph 81% 0.04 in 40 W/m2
13:48 52.9 °F 47.8 °F 29.3 in WNW 14 mph 14 mph 83% 0.05 in 74 W/m2
13:53 52.3 °F 47.7 °F 29.3 in NW 2.9 mph 6 mph 84% 0.05 in 58 W/m2
13:58 52 °F 47.7 °F 29.3 in West 2 mph 11 mph 85% 0.06 in 72 W/m2
14:03 51.6 °F 47.5 °F 29.3 in West 2.9 mph 4 mph 86% 0.06 in 25 W/m2
14:08 51.4 °F 47.7 °F 29.3 in NNW 2 mph 12 mph 87% 0.09 in 19 W/m2
14:13 50.9 °F 47.5 °F 29.3 in SSE 4 mph 14 mph 88% 0.09 in 23 W/m2
14:18 50.5 °F 47.1 °F 29.3 in WSW 4 mph 10 mph 88% 0.1 in 30 W/m2
14:23 50.4 °F 46.9 °F 29.3 in SE 4 mph 16 mph 88% 0.11 in 74 W/m2
14:28 50.4 °F 46.9 °F 29.3 in WNW 2.9 mph 10 mph 88% 0.1 in 134 W/m2
14:33 50.2 °F 46.8 °F 29.3 in SE 0.9 mph 14 mph 88% 0.09 in 109 W/m2
14:39 50.4 °F 47.3 °F 29.3 in West 13 mph 16 mph 89% 0.08 in 67 W/m2
14:44 50.4 °F 46.9 °F 29.3 in WNW 12.1 mph 12 mph 88% 0.06 in 37 W/m2
14:49 50.5 °F 47.1 °F 29.3 in WNW 8.9 mph 16 mph 88% 0.06 in 49 W/m2
14:54 50.7 °F 46.9 °F 29.3 in NNW 8.1 mph 11 mph 87% 0.07 in 49 W/m2
14:59 50.7 °F 46.8 °F 29.3 in SSW 2.9 mph 6 mph 86% 0.06 in 65 W/m2
15:04 50.9 °F 46.9 °F 29.3 in West 6 mph 13 mph 86% 0.06 in 181 W/m2
15:09 51.1 °F 47.1 °F 29.3 in NNW 2.9 mph 7 mph 86% 0.04 in 109 W/m2
15:14 51.1 °F 47.1 °F 29.3 in West 8.1 mph 14 mph 86% 0.03 in 76 W/m2
15:19 50.9 °F 46.9 °F 29.3 in WNW 4 mph 4 mph 86% 0.02 in 113 W/m2
15:24 51.1 °F 47.1 °F 29.3 in NW 4.9 mph 5 mph 86% 0.02 in 146 W/m2
15:29 51.1 °F 46.8 °F 29.3 in WSW 8.9 mph 17 mph 85% 0.02 in 65 W/m2
15:34 51.1 °F 46.8 °F 29.3 in North 2.9 mph 4 mph 85% 0.02 in 88 W/m2
15:39 50.9 °F 46.9 °F 29.3 in West 4 mph 17 mph 86% 0.02 in 47 W/m2
15:44 49.5 °F 44.6 °F 29.3 in WNW 10.1 mph 16 mph 83% 0.02 in 63 W/m2
15:49 48.4 °F 43.7 °F 29.3 in West 6 mph 16 mph 84% 0.02 in 135 W/m2
15:54 47.7 °F 43.3 °F 29.4 in West 11 mph 15 mph 85% 0.02 in 44 W/m2
15:59 47.1 °F 43.2 °F 29.3 in WSW 12.1 mph 12 mph 86% 0.02 in 53 W/m2
16:04 46.9 °F 43 °F 29.4 in West 14.1 mph 14 mph 86% 0.01 in 74 W/m2
16:09 46.9 °F 43 °F 29.4 in WNW 8.1 mph 11 mph 86% 0.01 in 63 W/m2
16:14 46.9 °F 43 °F 29.4 in West 8.1 mph 11 mph 86% 0.01 in 54 W/m2
16:20 46.8 °F 42.8 °F 29.4 in NW 2.9 mph 10 mph 86% 0.01 in 53 W/m2
16:25 46.8 °F 42.8 °F 29.4 in West 6.9 mph 13 mph 86% 0.01 in 44 W/m2
16:30 46.8 °F 42.8 °F 29.4 in WNW 12.1 mph 12 mph 86% 0.01 in 44 W/m2
Juneau County Weather
Compliments of Weather Underground - 4 mb